Annandale, New Jersey
Current Conditions -  °F | °C
As of 2:53 PM on Friday 19 Dec 2014 (Local Time) from KSMQ Reporting Station
Overcast Overcast  
Wind Chill:   Ceiling: 4000
Heat Index:   Visibility: 10mi
Dew Point: -6°   Wind: 10mph
Humidity: 49%   Direction: 330°NNW
Pressure: 30.06"   Gusts: NA
Location:  40.65°N, 74.89°W
Report Text: KSMQ 191953Z AUTO 33009KT 300V360 10SM OVC040 04/M06 A3006 RMK AO2 SLP181 T00391061
Loading
Personal Weather Stations






























Interactive Weather Map New forecast layout! Learn more

10-Day Weather Forecast

Advertisements
Track Severe Weather on mobile